Terminal Aerodrome Forecast
Issued by NWS

Home | Current Version | Previous Version | Text Only | Print | Product List | Glossary On
Versions: 1 2 3 4 5 6 7 8 9 10 11 12 13 14
000
FTUS45 KRIW 312300
TAFRKS
TAF
KRKS 312327Z 0100/0124 04009KT P6SM SCT250
     FM010300 05008KT P6SM FEW200
     FM012200 04011G16KT P6SM VCTS SCT080CB=

USA.gov is the U.S. government's official web portal to all federal, state and local government web resources and services.